sensor_id;sensor_type;location;lat;lon;timestamp;pressure;altitude;pressure_sealevel;temperature;humidity
31911;BME280;18457;52.432;16.914;2023-04-15T00:00:30;99477.24;;;12.51;78.82
31911;BME280;18457;52.432;16.914;2023-04-15T00:03:18;99473.71;;;12.46;78.59
31911;BME280;18457;52.432;16.914;2023-04-15T00:05:50;99472.73;;;12.43;78.58
31911;BME280;18457;52.432;16.914;2023-04-15T00:08:22;99470.67;;;12.44;78.61
31911;BME280;18457;52.432;16.914;2023-04-15T00:10:53;99469.33;;;12.46;78.79
31911;BME280;18457;52.432;16.914;2023-04-15T00:13:25;99473.42;;;12.44;78.70
31911;BME280;18457;52.432;16.914;2023-04-15T00:15:57;99470.34;;;12.40;78.79
31911;BME280;18457;52.432;16.914;2023-04-15T00:18:29;99468.42;;;12.39;78.54
31911;BME280;18457;52.432;16.914;2023-04-15T00:21:01;99470.64;;;12.37;78.76
31911;BME280;18457;52.432;16.914;2023-04-15T00:23:32;99471.49;;;12.35;78.88
31911;BME280;18457;52.432;16.914;2023-04-15T00:26:06;99473.03;;;12.29;79.30
31911;BME280;18457;52.432;16.914;2023-04-15T00:28:38;99473.32;;;12.31;79.09
31911;BME280;18457;52.432;16.914;2023-04-15T00:31:09;99472.45;;;12.34;79.23
31911;BME280;18457;52.432;16.914;2023-04-15T00:33:42;99473.39;;;12.33;79.17
31911;BME280;18457;52.432;16.914;2023-04-15T00:36:14;99469.40;;;12.33;79.07
31911;BME280;18457;52.432;16.914;2023-04-15T00:38:46;99470.05;;;12.26;79.37
31911;BME280;18457;52.432;16.914;2023-04-15T00:41:17;99465.25;;;12.25;79.21
31911;BME280;18457;52.432;16.914;2023-04-15T00:43:50;99461.96;;;12.21;79.42
31911;BME280;18457;52.432;16.914;2023-04-15T00:46:23;99460.69;;;12.21;79.35
31911;BME280;18457;52.432;16.914;2023-04-15T00:48:56;99461.05;;;12.21;79.43
31911;BME280;18457;52.432;16.914;2023-04-15T00:51:29;99457.59;;;12.18;79.33
31911;BME280;18457;52.432;16.914;2023-04-15T00:54:03;99456.14;;;12.18;79.18
31911;BME280;18457;52.432;16.914;2023-04-15T00:56:37;99457.10;;;12.13;79.54
31911;BME280;18457;52.432;16.914;2023-04-15T00:59:09;99452.41;;;12.05;79.58
31911;BME280;18457;52.432;16.914;2023-04-15T01:01:41;99452.05;;;12.01;79.84
31911;BME280;18457;52.432;16.914;2023-04-15T01:04:16;99450.43;;;11.93;80.41
31911;BME280;18457;52.432;16.914;2023-04-15T01:06:48;99451.20;;;11.92;80.47
31911;BME280;18457;52.432;16.914;2023-04-15T01:09:20;99450.98;;;11.84;80.51
31911;BME280;18457;52.432;16.914;2023-04-15T01:11:54;99453.17;;;11.92;80.54
31911;BME280;18457;52.432;16.914;2023-04-15T01:14:27;99455.63;;;11.86;80.37
31911;BME280;18457;52.432;16.914;2023-04-15T01:17:01;99461.77;;;11.79;80.83
31911;BME280;18457;52.432;16.914;2023-04-15T01:19:33;99457.34;;;11.72;81.05
31911;BME280;18457;52.432;16.914;2023-04-15T01:22:05;99454.20;;;11.70;81.25
31911;BME280;18457;52.432;16.914;2023-04-15T01:24:37;99455.33;;;11.64;81.55
31911;BME280;18457;52.432;16.914;2023-04-15T01:27:09;99459.84;;;11.65;81.63
31911;BME280;18457;52.432;16.914;2023-04-15T01:29:41;99464.00;;;11.69;81.44
31911;BME280;18457;52.432;16.914;2023-04-15T01:32:14;99465.81;;;11.69;81.53
31911;BME280;18457;52.432;16.914;2023-04-15T01:34:45;99467.24;;;11.69;81.54
31911;BME280;18457;52.432;16.914;2023-04-15T01:37:17;99469.69;;;11.70;81.56
31911;BME280;18457;52.432;16.914;2023-04-15T01:39:49;99467.09;;;11.68;81.44
31911;BME280;18457;52.432;16.914;2023-04-15T01:42:21;99472.55;;;11.72;81.20
31911;BME280;18457;52.432;16.914;2023-04-15T01:44:52;99474.75;;;11.71;81.19
31911;BME280;18457;52.432;16.914;2023-04-15T01:47:24;99474.27;;;11.74;81.01
31911;BME280;18457;52.432;16.914;2023-04-15T01:49:57;99471.31;;;11.75;81.05
31911;BME280;18457;52.432;16.914;2023-04-15T01:52:29;99469.73;;;11.74;81.16
31911;BME280;18457;52.432;16.914;2023-04-15T01:55:01;99473.69;;;11.74;80.90
31911;BME280;18457;52.432;16.914;2023-04-15T01:57:34;99473.98;;;11.68;81.25
31911;BME280;18457;52.432;16.914;2023-04-15T02:00:08;99472.23;;;11.54;81.87
31911;BME280;18457;52.432;16.914;2023-04-15T02:02:44;99473.77;;;11.56;81.79
31911;BME280;18457;52.432;16.914;2023-04-15T02:05:16;99472.46;;;11.44;82.22
31911;BME280;18457;52.432;16.914;2023-04-15T02:07:50;99473.34;;;11.49;82.37
31911;BME280;18457;52.432;16.914;2023-04-15T02:10:23;99469.34;;;11.53;82.11
31911;BME280;18457;52.432;16.914;2023-04-15T02:12:57;99467.98;;;11.60;82.03
31911;BME280;18457;52.432;16.914;2023-04-15T02:15:30;99470.55;;;11.63;81.98
31911;BME280;18457;52.432;16.914;2023-04-15T02:18:02;99470.70;;;11.56;82.42
31911;BME280;18457;52.432;16.914;2023-04-15T02:20:34;99468.05;;;11.54;82.37
31911;BME280;18457;52.432;16.914;2023-04-15T02:23:05;99470.81;;;11.40;82.98
31911;BME280;18457;52.432;16.914;2023-04-15T02:25:38;99470.70;;;11.38;83.39
31911;BME280;18457;52.432;16.914;2023-04-15T02:28:10;99465.58;;;11.23;83.83
31911;BME280;18457;52.432;16.914;2023-04-15T02:30:41;99466.80;;;11.15;84.63
31911;BME280;18457;52.432;16.914;2023-04-15T02:33:13;99463.64;;;11.21;84.42
31911;BME280;18457;52.432;16.914;2023-04-15T02:35:46;99469.08;;;11.29;84.09
31911;BME280;18457;52.432;16.914;2023-04-15T02:38:18;99467.81;;;11.38;83.66
31911;BME280;18457;52.432;16.914;2023-04-15T02:40:50;99468.57;;;11.29;83.93
31911;BME280;18457;52.432;16.914;2023-04-15T02:43:22;99471.45;;;11.25;84.01
31911;BME280;18457;52.432;16.914;2023-04-15T02:45:56;99467.15;;;11.28;83.97
31911;BME280;18457;52.432;16.914;2023-04-15T02:48:30;99470.63;;;11.27;84.05
31911;BME280;18457;52.432;16.914;2023-04-15T02:51:19;99468.23;;;11.29;83.88
31911;BME280;18457;52.432;16.914;2023-04-15T02:53:51;99469.48;;;11.29;83.97
31911;BME280;18457;52.432;16.914;2023-04-15T02:56:22;99465.94;;;11.31;84.10
31911;BME280;18457;52.432;16.914;2023-04-15T02:58:54;99465.73;;;11.10;85.45
31911;BME280;18457;52.432;16.914;2023-04-15T03:01:26;99464.42;;;11.07;86.05
31911;BME280;18457;52.432;16.914;2023-04-15T03:03:58;99465.37;;;11.15;85.99
31911;BME280;18457;52.432;16.914;2023-04-15T03:06:30;99468.41;;;11.20;85.68
31911;BME280;18457;52.432;16.914;2023-04-15T03:09:02;99463.19;;;11.19;85.94
31911;BME280;18457;52.432;16.914;2023-04-15T03:11:37;99466.92;;;11.21;85.90
31911;BME280;18457;52.432;16.914;2023-04-15T03:14:12;99469.35;;;11.28;86.09
31911;BME280;18457;52.432;16.914;2023-04-15T03:16:47;99469.86;;;11.32;85.96
31911;BME280;18457;52.432;16.914;2023-04-15T03:19:20;99473.33;;;11.36;86.53
31911;BME280;18457;52.432;16.914;2023-04-15T03:21:52;99473.79;;;11.34;87.10
31911;BME280;18457;52.432;16.914;2023-04-15T03:24:24;99474.45;;;11.18;87.70
31911;BME280;18457;52.432;16.914;2023-04-15T03:26:59;99471.41;;;11.17;88.31
31911;BME280;18457;52.432;16.914;2023-04-15T03:29:32;99472.23;;;11.10;89.30
31911;BME280;18457;52.432;16.914;2023-04-15T03:32:05;99473.17;;;11.05;90.61
31911;BME280;18457;52.432;16.914;2023-04-15T03:34:37;99479.95;;;11.07;91.46
31911;BME280;18457;52.432;16.914;2023-04-15T03:37:09;99479.23;;;11.12;91.40
31911;BME280;18457;52.432;16.914;2023-04-15T03:39:40;99478.50;;;11.03;91.92
31911;BME280;18457;52.432;16.914;2023-04-15T03:42:12;99482.13;;;11.03;92.39
31911;BME280;18457;52.432;16.914;2023-04-15T03:44:44;99482.21;;;11.10;92.34
31911;BME280;18457;52.432;16.914;2023-04-15T03:47:16;99480.95;;;11.10;92.45
31911;BME280;18457;52.432;16.914;2023-04-15T03:49:48;99483.52;;;11.08;92.67
31911;BME280;18457;52.432;16.914;2023-04-15T03:52:20;99482.16;;;11.07;93.11
31911;BME280;18457;52.432;16.914;2023-04-15T03:54:52;99485.19;;;11.03;93.47
31911;BME280;18457;52.432;16.914;2023-04-15T03:57:24;99487.21;;;11.02;93.57
31911;BME280;18457;52.432;16.914;2023-04-15T03:59:56;99487.63;;;11.06;93.96
31911;BME280;18457;52.432;16.914;2023-04-15T04:02:28;99487.76;;;11.02;94.10
31911;BME280;18457;52.432;16.914;2023-04-15T04:05:00;99489.48;;;10.91;95.30
31911;BME280;18457;52.432;16.914;2023-04-15T04:07:32;99492.20;;;10.82;95.91
31911;BME280;18457;52.432;16.914;2023-04-15T04:10:05;99489.91;;;10.85;96.32
31911;BME280;18457;52.432;16.914;2023-04-15T04:12:37;99490.02;;;10.86;96.35
31911;BME280;18457;52.432;16.914;2023-04-15T04:15:10;99488.98;;;10.81;96.59
31911;BME280;18457;52.432;16.914;2023-04-15T04:17:42;99493.19;;;10.71;97.33
31911;BME280;18457;52.432;16.914;2023-04-15T04:20:14;99494.96;;;10.72;97.66
31911;BME280;18457;52.432;16.914;2023-04-15T04:22:46;99486.98;;;10.77;97.67
31911;BME280;18457;52.432;16.914;2023-04-15T04:25:18;99487.21;;;10.76;97.78
31911;BME280;18457;52.432;16.914;2023-04-15T04:27:49;99491.59;;;10.75;98.02
31911;BME280;18457;52.432;16.914;2023-04-15T04:30:21;99490.28;;;10.71;98.26
31911;BME280;18457;52.432;16.914;2023-04-15T04:32:53;99491.56;;;10.71;98.74
31911;BME280;18457;52.432;16.914;2023-04-15T04:35:25;99493.34;;;10.67;99.28
31911;BME280;18457;52.432;16.914;2023-04-15T04:37:57;99494.77;;;10.67;99.30
31911;BME280;18457;52.432;16.914;2023-04-15T04:40:28;99495.08;;;10.64;99.82
31911;BME280;18457;52.432;16.914;2023-04-15T04:43:00;99493.05;;;10.61;99.99
31911;BME280;18457;52.432;16.914;2023-04-15T04:45:32;99496.56;;;10.59;100.00
31911;BME280;18457;52.432;16.914;2023-04-15T04:48:04;99497.98;;;10.59;100.00
31911;BME280;18457;52.432;16.914;2023-04-15T04:50:38;99496.98;;;10.52;100.00
31911;BME280;18457;52.432;16.914;2023-04-15T04:53:10;99501.33;;;10.52;100.00
31911;BME280;18457;52.432;16.914;2023-04-15T04:55:42;99504.99;;;10.60;100.00
31911;BME280;18457;52.432;16.914;2023-04-15T04:58:13;99508.29;;;10.68;100.00
31911;BME280;18457;52.432;16.914;2023-04-15T05:00:45;99511.47;;;10.70;100.00
31911;BME280;18457;52.432;16.914;2023-04-15T05:03:18;99506.11;;;10.73;100.00
31911;BME280;18457;52.432;16.914;2023-04-15T05:05:50;99504.19;;;10.76;100.00
31911;BME280;18457;52.432;16.914;2023-04-15T05:08:22;99508.77;;;10.69;100.00
31911;BME280;18457;52.432;16.914;2023-04-15T05:10:54;99508.91;;;10.61;100.00
31911;BME280;18457;52.432;16.914;2023-04-15T05:13:27;99509.02;;;10.58;100.00
31911;BME280;18457;52.432;16.914;2023-04-15T05:16:00;99511.69;;;10.64;100.00
31911;BME280;18457;52.432;16.914;2023-04-15T05:18:32;99511.27;;;10.61;100.00
31911;BME280;18457;52.432;16.914;2023-04-15T05:21:04;99513.42;;;10.66;100.00
31911;BME280;18457;52.432;16.914;2023-04-15T05:23:37;99510.19;;;10.70;100.00
31911;BME280;18457;52.432;16.914;2023-04-15T05:26:09;99512.19;;;10.61;100.00
31911;BME280;18457;52.432;16.914;2023-04-15T05:28:41;99511.30;;;10.56;100.00
31911;BME280;18457;52.432;16.914;2023-04-15T05:31:13;99517.77;;;10.61;100.00
31911;BME280;18457;52.432;16.914;2023-04-15T05:33:45;99514.33;;;10.66;100.00
31911;BME280;18457;52.432;16.914;2023-04-15T05:36:17;99513.19;;;10.68;100.00
31911;BME280;18457;52.432;16.914;2023-04-15T05:38:48;99509.81;;;10.56;100.00
31911;BME280;18457;52.432;16.914;2023-04-15T05:41:20;99509.49;;;10.56;100.00
31911;BME280;18457;52.432;16.914;2023-04-15T05:43:52;99511.52;;;10.60;100.00
31911;BME280;18457;52.432;16.914;2023-04-15T05:46:24;99514.84;;;10.67;100.00
31911;BME280;18457;52.432;16.914;2023-04-15T05:48:57;99512.38;;;10.65;100.00
31911;BME280;18457;52.432;16.914;2023-04-15T05:51:30;99514.46;;;10.58;100.00
31911;BME280;18457;52.432;16.914;2023-04-15T05:54:01;99514.50;;;10.62;100.00
31911;BME280;18457;52.432;16.914;2023-04-15T05:56:33;99518.71;;;10.65;100.00
31911;BME280;18457;52.432;16.914;2023-04-15T05:59:06;99520.10;;;10.66;100.00
31911;BME280;18457;52.432;16.914;2023-04-15T06:01:38;99517.58;;;10.62;100.00
31911;BME280;18457;52.432;16.914;2023-04-15T06:04:10;99520.31;;;10.65;100.00
31911;BME280;18457;52.432;16.914;2023-04-15T06:06:42;99524.21;;;10.72;100.00
31911;BME280;18457;52.432;16.914;2023-04-15T06:09:14;99525.29;;;10.63;100.00
31911;BME280;18457;52.432;16.914;2023-04-15T06:11:46;99527.02;;;10.70;100.00
31911;BME280;18457;52.432;16.914;2023-04-15T06:14:18;99531.16;;;10.74;100.00
31911;BME280;18457;52.432;16.914;2023-04-15T06:16:50;99530.35;;;10.77;100.00
31911;BME280;18457;52.432;16.914;2023-04-15T06:19:22;99534.31;;;10.77;100.00
31911;BME280;18457;52.432;16.914;2023-04-15T06:21:54;99537.71;;;10.78;100.00
31911;BME280;18457;52.432;16.914;2023-04-15T06:24:26;99535.90;;;10.78;100.00
31911;BME280;18457;52.432;16.914;2023-04-15T06:26:58;99537.84;;;10.79;100.00
31911;BME280;18457;52.432;16.914;2023-04-15T06:29:31;99541.21;;;10.81;100.00
31911;BME280;18457;52.432;16.914;2023-04-15T06:32:04;99539.70;;;10.78;100.00
31911;BME280;18457;52.432;16.914;2023-04-15T06:34:35;99536.54;;;10.76;100.00
31911;BME280;18457;52.432;16.914;2023-04-15T06:37:09;99537.15;;;10.74;100.00
31911;BME280;18457;52.432;16.914;2023-04-15T06:39:45;99541.48;;;10.79;100.00
31911;BME280;18457;52.432;16.914;2023-04-15T06:42:17;99544.85;;;10.85;100.00
31911;BME280;18457;52.432;16.914;2023-04-15T06:44:49;99542.42;;;10.91;100.00
31911;BME280;18457;52.432;16.914;2023-04-15T06:47:21;99544.92;;;10.92;100.00
31911;BME280;18457;52.432;16.914;2023-04-15T06:49:53;99551.63;;;10.82;100.00
31911;BME280;18457;52.432;16.914;2023-04-15T06:52:26;99547.98;;;10.79;100.00
31911;BME280;18457;52.432;16.914;2023-04-15T06:54:58;99552.17;;;10.87;100.00
31911;BME280;18457;52.432;16.914;2023-04-15T06:57:30;99553.06;;;10.92;100.00
31911;BME280;18457;52.432;16.914;2023-04-15T07:00:07;99552.17;;;11.00;100.00
31911;BME280;18457;52.432;16.914;2023-04-15T07:02:41;99555.18;;;11.06;100.00
31911;BME280;18457;52.432;16.914;2023-04-15T07:05:13;99560.91;;;11.08;100.00
31911;BME280;18457;52.432;16.914;2023-04-15T07:07:46;99565.04;;;11.04;100.00
31911;BME280;18457;52.432;16.914;2023-04-15T07:10:18;99569.51;;;11.10;100.00
31911;BME280;18457;52.432;16.914;2023-04-15T07:12:50;99568.29;;;11.13;100.00
31911;BME280;18457;52.432;16.914;2023-04-15T07:15:22;99567.91;;;11.14;100.00
31911;BME280;18457;52.432;16.914;2023-04-15T07:17:55;99572.05;;;11.14;100.00
31911;BME280;18457;52.432;16.914;2023-04-15T07:20:27;99576.66;;;11.16;100.00
31911;BME280;18457;52.432;16.914;2023-04-15T07:22:59;99575.56;;;11.16;100.00
31911;BME280;18457;52.432;16.914;2023-04-15T07:25:31;99578.92;;;11.18;100.00
31911;BME280;18457;52.432;16.914;2023-04-15T07:28:03;99579.60;;;11.19;100.00
31911;BME280;18457;52.432;16.914;2023-04-15T07:30:35;99585.04;;;11.19;100.00
31911;BME280;18457;52.432;16.914;2023-04-15T07:33:08;99586.92;;;11.22;100.00
31911;BME280;18457;52.432;16.914;2023-04-15T07:35:43;99586.45;;;11.24;100.00
31911;BME280;18457;52.432;16.914;2023-04-15T07:38:19;99588.17;;;11.18;100.00
31911;BME280;18457;52.432;16.914;2023-04-15T07:40:56;99588.59;;;11.16;100.00
31911;BME280;18457;52.432;16.914;2023-04-15T07:43:32;99588.08;;;11.15;100.00
31911;BME280;18457;52.432;16.914;2023-04-15T07:46:07;99590.95;;;11.20;100.00
31911;BME280;18457;52.432;16.914;2023-04-15T07:48:40;99591.34;;;11.15;100.00
31911;BME280;18457;52.432;16.914;2023-04-15T07:51:12;99592.25;;;11.19;100.00
31911;BME280;18457;52.432;16.914;2023-04-15T07:53:47;99595.55;;;11.27;100.00
31911;BME280;18457;52.432;16.914;2023-04-15T07:56:23;99598.70;;;11.30;100.00
31911;BME280;18457;52.432;16.914;2023-04-15T07:59:00;99596.48;;;11.27;100.00
31911;BME280;18457;52.432;16.914;2023-04-15T08:01:34;99601.52;;;11.23;100.00
31911;BME280;18457;52.432;16.914;2023-04-15T08:04:09;99598.50;;;11.26;100.00
31911;BME280;18457;52.432;16.914;2023-04-15T08:06:44;99605.98;;;11.29;100.00
31911;BME280;18457;52.432;16.914;2023-04-15T08:09:17;99603.36;;;11.35;100.00
31911;BME280;18457;52.432;16.914;2023-04-15T08:11:51;99603.95;;;11.39;100.00
31911;BME280;18457;52.432;16.914;2023-04-15T08:14:23;99606.16;;;11.33;100.00
31911;BME280;18457;52.432;16.914;2023-04-15T08:16:55;99611.18;;;11.30;100.00
31911;BME280;18457;52.432;16.914;2023-04-15T08:19:28;99612.41;;;11.31;100.00
31911;BME280;18457;52.432;16.914;2023-04-15T08:22:00;99616.64;;;11.33;100.00
31911;BME280;18457;52.432;16.914;2023-04-15T08:24:32;99612.74;;;11.31;100.00
31911;BME280;18457;52.432;16.914;2023-04-15T08:27:05;99619.79;;;11.31;100.00
31911;BME280;18457;52.432;16.914;2023-04-15T08:29:37;99621.73;;;11.32;100.00
31911;BME280;18457;52.432;16.914;2023-04-15T08:32:10;99619.52;;;11.38;100.00
31911;BME280;18457;52.432;16.914;2023-04-15T08:34:42;99625.17;;;11.37;100.00
31911;BME280;18457;52.432;16.914;2023-04-15T08:37:14;99619.33;;;11.43;100.00
31911;BME280;18457;52.432;16.914;2023-04-15T08:39:46;99619.61;;;11.50;100.00
31911;BME280;18457;52.432;16.914;2023-04-15T08:42:24;99623.68;;;11.48;100.00
31911;BME280;18457;52.432;16.914;2023-04-15T08:44:59;99627.13;;;11.42;100.00
31911;BME280;18457;52.432;16.914;2023-04-15T08:47:35;99630.09;;;11.45;100.00
31911;BME280;18457;52.432;16.914;2023-04-15T08:50:10;99630.69;;;11.44;100.00
31911;BME280;18457;52.432;16.914;2023-04-15T08:52:43;99632.87;;;11.48;100.00
31911;BME280;18457;52.432;16.914;2023-04-15T08:55:17;99635.38;;;11.49;100.00
31911;BME280;18457;52.432;16.914;2023-04-15T08:57:49;99638.61;;;11.54;100.00
31911;BME280;18457;52.432;16.914;2023-04-15T09:00:22;99637.48;;;11.55;100.00
31911;BME280;18457;52.432;16.914;2023-04-15T09:02:55;99639.35;;;11.58;100.00
31911;BME280;18457;52.432;16.914;2023-04-15T09:05:25;99640.94;;;11.64;100.00
31911;BME280;18457;52.432;16.914;2023-04-15T09:07:57;99641.26;;;11.70;100.00
31911;BME280;18457;52.432;16.914;2023-04-15T09:10:30;99635.55;;;11.62;100.00
31911;BME280;18457;52.432;16.914;2023-04-15T09:13:02;99643.64;;;11.69;100.00
31911;BME280;18457;52.432;16.914;2023-04-15T09:15:38;99643.69;;;11.77;100.00
31911;BME280;18457;52.432;16.914;2023-04-15T09:18:13;99646.85;;;11.83;100.00
31911;BME280;18457;52.432;16.914;2023-04-15T09:20:45;99648.03;;;11.89;100.00
31911;BME280;18457;52.432;16.914;2023-04-15T09:23:20;99651.44;;;11.95;100.00
31911;BME280;18457;52.432;16.914;2023-04-15T09:25:52;99650.41;;;11.97;100.00
31911;BME280;18457;52.432;16.914;2023-04-15T09:28:28;99649.80;;;11.99;100.00
31911;BME280;18457;52.432;16.914;2023-04-15T09:31:01;99652.67;;;12.00;100.00
31911;BME280;18457;52.432;16.914;2023-04-15T09:33:33;99655.04;;;11.99;100.00
31911;BME280;18457;52.432;16.914;2023-04-15T09:36:07;99653.39;;;12.04;100.00
31911;BME280;18457;52.432;16.914;2023-04-15T09:38:55;99656.90;;;11.98;100.00
31911;BME280;18457;52.432;16.914;2023-04-15T09:41:29;99657.65;;;12.02;100.00
31911;BME280;18457;52.432;16.914;2023-04-15T09:44:02;99656.13;;;11.99;100.00
31911;BME280;18457;52.432;16.914;2023-04-15T09:46:45;99658.75;;;12.01;100.00
31911;BME280;18457;52.432;16.914;2023-04-15T09:49:17;99657.48;;;12.10;100.00
31911;BME280;18457;52.432;16.914;2023-04-15T09:51:49;99660.80;;;12.17;100.00
31911;BME280;18457;52.432;16.914;2023-04-15T09:54:38;99665.32;;;12.21;100.00
31911;BME280;18457;52.432;16.914;2023-04-15T09:57:11;99667.31;;;12.34;100.00
31911;BME280;18457;52.432;16.914;2023-04-15T09:59:43;99666.59;;;12.43;100.00
31911;BME280;18457;52.432;16.914;2023-04-15T10:02:16;99666.24;;;12.42;100.00
31911;BME280;18457;52.432;16.914;2023-04-15T10:04:50;99660.64;;;12.50;100.00
31911;BME280;18457;52.432;16.914;2023-04-15T10:07:24;99662.39;;;12.63;100.00
31911;BME280;18457;52.432;16.914;2023-04-15T10:09:59;99664.34;;;12.72;100.00
31911;BME280;18457;52.432;16.914;2023-04-15T10:12:33;99663.40;;;12.73;100.00
31911;BME280;18457;52.432;16.914;2023-04-15T10:15:15;99669.38;;;12.69;100.00
31911;BME280;18457;52.432;16.914;2023-04-15T10:17:48;99671.69;;;12.62;100.00
31911;BME280;18457;52.432;16.914;2023-04-15T10:20:23;99682.52;;;12.55;100.00
31911;BME280;18457;52.432;16.914;2023-04-15T10:22:56;99683.14;;;12.45;96.95
31911;BME280;18457;52.432;16.914;2023-04-15T10:25:28;99688.83;;;12.39;94.07
31911;BME280;18457;52.432;16.914;2023-04-15T10:28:01;99688.77;;;12.32;93.92
31911;BME280;18457;52.432;16.914;2023-04-15T10:30:33;99691.48;;;12.28;94.73
31911;BME280;18457;52.432;16.914;2023-04-15T10:33:06;99690.50;;;12.25;94.77
31911;BME280;18457;52.432;16.914;2023-04-15T10:35:40;99693.12;;;12.19;92.61
31911;BME280;18457;52.432;16.914;2023-04-15T10:38:35;99691.07;;;12.16;92.82
31911;BME280;18457;52.432;16.914;2023-04-15T10:41:19;99691.77;;;12.12;93.26
31911;BME280;18457;52.432;16.914;2023-04-15T10:43:53;99693.48;;;12.06;94.05
31911;BME280;18457;52.432;16.914;2023-04-15T10:46:36;99695.61;;;12.03;94.33
31911;BME280;18457;52.432;16.914;2023-04-15T10:49:10;99699.02;;;12.04;94.93
31911;BME280;18457;52.432;16.914;2023-04-15T10:51:44;99701.38;;;12.04;94.77
31911;BME280;18457;52.432;16.914;2023-04-15T10:54:30;99698.77;;;12.01;95.94
31911;BME280;18457;52.432;16.914;2023-04-15T10:57:13;99702.80;;;12.04;96.53
31911;BME280;18457;52.432;16.914;2023-04-15T11:00:00;99702.75;;;12.05;96.59
31911;BME280;18457;52.432;16.914;2023-04-15T11:02:42;99700.19;;;12.11;95.85
31911;BME280;18457;52.432;16.914;2023-04-15T11:05:16;99703.61;;;12.15;96.15
31911;BME280;18457;52.432;16.914;2023-04-15T11:07:53;99705.91;;;12.16;95.64
31911;BME280;18457;52.432;16.914;2023-04-15T11:10:51;99704.02;;;12.14;94.28
31911;BME280;18457;52.432;16.914;2023-04-15T11:13:30;99705.70;;;12.08;94.43
31911;BME280;18457;52.432;16.914;2023-04-15T11:16:04;99705.77;;;12.07;94.92
31911;BME280;18457;52.432;16.914;2023-04-15T11:18:36;99711.45;;;12.01;95.14
31911;BME280;18457;52.432;16.914;2023-04-15T11:21:09;99714.72;;;12.01;95.42
31911;BME280;18457;52.432;16.914;2023-04-15T11:23:42;99721.34;;;12.02;94.43
31911;BME280;18457;52.432;16.914;2023-04-15T11:26:17;99726.17;;;11.99;93.23
31911;BME280;18457;52.432;16.914;2023-04-15T11:28:49;99732.67;;;11.95;91.60
31911;BME280;18457;52.432;16.914;2023-04-15T11:31:21;99733.56;;;11.91;92.97
31911;BME280;18457;52.432;16.914;2023-04-15T11:33:58;99733.02;;;11.87;93.34
31911;BME280;18457;52.432;16.914;2023-04-15T11:36:31;99737.67;;;11.93;93.62
31911;BME280;18457;52.432;16.914;2023-04-15T11:39:03;99738.54;;;11.98;94.05
31911;BME280;18457;52.432;16.914;2023-04-15T11:41:41;99740.55;;;11.98;93.33
31911;BME280;18457;52.432;16.914;2023-04-15T11:44:18;99744.43;;;11.96;92.69
31911;BME280;18457;52.432;16.914;2023-04-15T11:46:51;99742.56;;;11.93;94.19
31911;BME280;18457;52.432;16.914;2023-04-15T11:49:30;99742.16;;;11.89;95.88
31911;BME280;18457;52.432;16.914;2023-04-15T11:52:10;99744.29;;;11.86;96.93
31911;BME280;18457;52.432;16.914;2023-04-15T11:54:43;99744.81;;;11.86;97.98
31911;BME280;18457;52.432;16.914;2023-04-15T11:57:15;99747.42;;;11.84;97.76
31911;BME280;18457;52.432;16.914;2023-04-15T11:59:47;99749.05;;;11.84;96.82
31911;BME280;18457;52.432;16.914;2023-04-15T12:02:19;99749.23;;;11.89;96.62
31911;BME280;18457;52.432;16.914;2023-04-15T12:05:03;99758.84;;;11.93;96.53
31911;BME280;18457;52.432;16.914;2023-04-15T12:07:59;99745.30;;;11.87;97.13
31911;BME280;18457;52.432;16.914;2023-04-15T12:10:33;99759.41;;;11.92;96.25
31911;BME280;18457;52.432;16.914;2023-04-15T12:13:08;99760.90;;;11.87;96.41
31911;BME280;18457;52.432;16.914;2023-04-15T12:15:40;99764.07;;;11.84;95.48
31911;BME280;18457;52.432;16.914;2023-04-15T12:18:18;99766.21;;;11.85;96.61
31911;BME280;18457;52.432;16.914;2023-04-15T12:20:51;99770.42;;;11.84;96.05
31911;BME280;18457;52.432;16.914;2023-04-15T12:23:24;99771.35;;;11.79;96.70
31911;BME280;18457;52.432;16.914;2023-04-15T12:25:59;99770.54;;;11.76;97.67
31911;BME280;18457;52.432;16.914;2023-04-15T12:28:37;99776.96;;;11.74;97.80
31911;BME280;18457;52.432;16.914;2023-04-15T12:31:13;99778.58;;;11.74;98.91
31911;BME280;18457;52.432;16.914;2023-04-15T12:33:48;99780.41;;;11.74;98.57
31911;BME280;18457;52.432;16.914;2023-04-15T12:36:20;99782.98;;;11.69;98.46
31911;BME280;18457;52.432;16.914;2023-04-15T12:38:52;99788.29;;;11.71;99.41
31911;BME280;18457;52.432;16.914;2023-04-15T12:41:24;99786.15;;;11.71;99.56
31911;BME280;18457;52.432;16.914;2023-04-15T12:43:57;99790.27;;;11.72;100.00
31911;BME280;18457;52.432;16.914;2023-04-15T12:46:30;99793.17;;;11.72;100.00
31911;BME280;18457;52.432;16.914;2023-04-15T12:49:02;99793.65;;;11.69;99.82
31911;BME280;18457;52.432;16.914;2023-04-15T12:51:34;99795.95;;;11.60;100.00
31911;BME280;18457;52.432;16.914;2023-04-15T12:54:06;99798.08;;;11.61;100.00
31911;BME280;18457;52.432;16.914;2023-04-15T12:56:38;99797.98;;;11.63;100.00
31911;BME280;18457;52.432;16.914;2023-04-15T12:59:11;99801.23;;;11.64;99.18
31911;BME280;18457;52.432;16.914;2023-04-15T13:01:43;99803.95;;;11.63;99.91
31911;BME280;18457;52.432;16.914;2023-04-15T13:04:14;99803.61;;;11.68;100.00
31911;BME280;18457;52.432;16.914;2023-04-15T13:06:47;99805.96;;;11.68;100.00
31911;BME280;18457;52.432;16.914;2023-04-15T13:09:19;99808.88;;;11.77;100.00
31911;BME280;18457;52.432;16.914;2023-04-15T13:11:52;99811.63;;;11.81;100.00
31911;BME280;18457;52.432;16.914;2023-04-15T13:14:23;99813.72;;;11.83;100.00
31911;BME280;18457;52.432;16.914;2023-04-15T13:16:55;99815.52;;;11.88;100.00